sensor_id;sensor_type;location;lat;lon;timestamp;P1;durP1;ratioP1;P2;durP2;ratioP2
44606;SDS011;30315;46.072;14.474;2023-10-13T00:01:57;4.85;;;4.40;;
44606;SDS011;30315;46.072;14.474;2023-10-13T00:04:27;8.27;;;4.40;;
44606;SDS011;30315;46.072;14.474;2023-10-13T00:06:55;9.63;;;4.65;;
44606;SDS011;30315;46.072;14.474;2023-10-13T00:09:26;7.47;;;5.40;;
44606;SDS011;30315;46.072;14.474;2023-10-13T00:11:59;8.80;;;5.38;;
44606;SDS011;30315;46.072;14.474;2023-10-13T00:14:27;7.55;;;4.68;;
44606;SDS011;30315;46.072;14.474;2023-10-13T00:17:01;6.45;;;4.93;;
44606;SDS011;30315;46.072;14.474;2023-10-13T00:19:33;4.88;;;4.47;;
44606;SDS011;30315;46.072;14.474;2023-10-13T00:22:12;10.15;;;5.15;;
44606;SDS011;30315;46.072;14.474;2023-10-13T00:24:43;8.13;;;5.15;;
44606;SDS011;30315;46.072;14.474;2023-10-13T00:27:13;5.22;;;4.72;;
44606;SDS011;30315;46.072;14.474;2023-10-13T00:29:57;9.07;;;4.72;;
44606;SDS011;30315;46.072;14.474;2023-10-13T00:32:52;5.95;;;4.25;;
44606;SDS011;30315;46.072;14.474;2023-10-13T00:35:23;4.13;;;3.72;;
44606;SDS011;30315;46.072;14.474;2023-10-13T00:38:03;4.82;;;4.32;;
44606;SDS011;30315;46.072;14.474;2023-10-13T00:40:39;6.57;;;4.75;;
44606;SDS011;30315;46.072;14.474;2023-10-13T00:43:08;4.68;;;4.28;;
44606;SDS011;30315;46.072;14.474;2023-10-13T00:45:45;4.35;;;3.92;;
44606;SDS011;30315;46.072;14.474;2023-10-13T00:48:33;9.27;;;5.40;;
44606;SDS011;30315;46.072;14.474;2023-10-13T00:51:09;13.02;;;4.82;;
44606;SDS011;30315;46.072;14.474;2023-10-13T00:53:56;4.88;;;3.92;;
44606;SDS011;30315;46.072;14.474;2023-10-13T00:56:23;4.60;;;4.22;;
44606;SDS011;30315;46.072;14.474;2023-10-13T00:58:57;4.55;;;4.15;;
44606;SDS011;30315;46.072;14.474;2023-10-13T01:01:29;9.20;;;4.57;;
44606;SDS011;30315;46.072;14.474;2023-10-13T01:03:59;4.88;;;3.97;;
44606;SDS011;30315;46.072;14.474;2023-10-13T01:06:27;4.53;;;4.13;;
44606;SDS011;30315;46.072;14.474;2023-10-13T01:09:03;7.22;;;4.55;;
44606;SDS011;30315;46.072;14.474;2023-10-13T01:11:45;5.07;;;4.18;;
44606;SDS011;30315;46.072;14.474;2023-10-13T01:14:21;5.80;;;4.38;;
44606;SDS011;30315;46.072;14.474;2023-10-13T01:16:53;5.40;;;4.43;;
44606;SDS011;30315;46.072;14.474;2023-10-13T01:19:22;4.53;;;4.13;;
44606;SDS011;30315;46.072;14.474;2023-10-13T01:21:53;5.82;;;4.47;;
44606;SDS011;30315;46.072;14.474;2023-10-13T01:24:29;5.95;;;4.47;;
44606;SDS011;30315;46.072;14.474;2023-10-13T01:27:04;6.15;;;4.45;;
44606;SDS011;30315;46.072;14.474;2023-10-13T01:29:45;4.60;;;4.20;;
44606;SDS011;30315;46.072;14.474;2023-10-13T01:32:18;5.68;;;5.18;;
44606;SDS011;30315;46.072;14.474;2023-10-13T01:34:46;5.10;;;4.60;;
44606;SDS011;30315;46.072;14.474;2023-10-13T01:37:15;4.90;;;4.40;;
44606;SDS011;30315;46.072;14.474;2023-10-13T01:39:43;9.15;;;4.93;;
44606;SDS011;30315;46.072;14.474;2023-10-13T01:42:17;4.18;;;3.88;;
44606;SDS011;30315;46.072;14.474;2023-10-13T01:44:48;6.97;;;4.18;;
44606;SDS011;30315;46.072;14.474;2023-10-13T01:47:16;4.97;;;4.07;;
44606;SDS011;30315;46.072;14.474;2023-10-13T01:49:43;5.60;;;4.75;;
44606;SDS011;30315;46.072;14.474;2023-10-13T01:52:14;5.38;;;4.65;;
44606;SDS011;30315;46.072;14.474;2023-10-13T01:54:44;5.60;;;5.00;;
44606;SDS011;30315;46.072;14.474;2023-10-13T01:57:16;5.47;;;4.40;;
44606;SDS011;30315;46.072;14.474;2023-10-13T01:59:45;6.13;;;4.38;;
44606;SDS011;30315;46.072;14.474;2023-10-13T02:02:16;5.07;;;3.92;;
44606;SDS011;30315;46.072;14.474;2023-10-13T02:04:56;8.02;;;4.55;;
44606;SDS011;30315;46.072;14.474;2023-10-13T02:07:27;5.55;;;4.47;;
44606;SDS011;30315;46.072;14.474;2023-10-13T02:09:57;7.20;;;4.70;;
44606;SDS011;30315;46.072;14.474;2023-10-13T02:12:25;4.85;;;4.45;;
44606;SDS011;30315;46.072;14.474;2023-10-13T02:15:03;6.18;;;4.05;;
44606;SDS011;30315;46.072;14.474;2023-10-13T02:17:31;4.05;;;3.75;;
44606;SDS011;30315;46.072;14.474;2023-10-13T02:20:06;4.63;;;3.97;;
44606;SDS011;30315;46.072;14.474;2023-10-13T02:25:44;12.43;;;4.53;;
44606;SDS011;30315;46.072;14.474;2023-10-13T02:28:12;6.25;;;4.75;;
44606;SDS011;30315;46.072;14.474;2023-10-13T02:30:41;11.20;;;4.45;;
44606;SDS011;30315;46.072;14.474;2023-10-13T02:33:12;15.43;;;4.63;;
44606;SDS011;30315;46.072;14.474;2023-10-13T02:35:40;4.25;;;3.95;;
44606;SDS011;30315;46.072;14.474;2023-10-13T02:38:08;6.07;;;4.78;;
44606;SDS011;30315;46.072;14.474;2023-10-13T02:40:38;5.30;;;4.80;;
44606;SDS011;30315;46.072;14.474;2023-10-13T02:43:06;5.18;;;4.20;;
44606;SDS011;30315;46.072;14.474;2023-10-13T02:45:33;4.45;;;4.07;;
44606;SDS011;30315;46.072;14.474;2023-10-13T02:48:04;5.13;;;4.57;;
44606;SDS011;30315;46.072;14.474;2023-10-13T02:50:40;6.97;;;4.40;;
44606;SDS011;30315;46.072;14.474;2023-10-13T02:53:16;5.57;;;4.65;;
44606;SDS011;30315;46.072;14.474;2023-10-13T02:55:51;5.38;;;4.47;;
44606;SDS011;30315;46.072;14.474;2023-10-13T02:58:19;7.72;;;4.85;;
44606;SDS011;30315;46.072;14.474;2023-10-13T03:00:47;8.95;;;4.47;;
44606;SDS011;30315;46.072;14.474;2023-10-13T03:03:14;4.10;;;3.80;;
44606;SDS011;30315;46.072;14.474;2023-10-13T03:05:45;5.45;;;4.30;;
44606;SDS011;30315;46.072;14.474;2023-10-13T03:08:12;4.13;;;3.83;;
44606;SDS011;30315;46.072;14.474;2023-10-13T03:10:44;8.63;;;4.78;;
44606;SDS011;30315;46.072;14.474;2023-10-13T03:13:16;4.93;;;4.05;;
44606;SDS011;30315;46.072;14.474;2023-10-13T03:15:44;12.80;;;5.68;;
44606;SDS011;30315;46.072;14.474;2023-10-13T03:18:14;5.60;;;4.68;;
44606;SDS011;30315;46.072;14.474;2023-10-13T03:20:45;5.28;;;4.68;;
44606;SDS011;30315;46.072;14.474;2023-10-13T03:23:17;5.45;;;4.57;;
44606;SDS011;30315;46.072;14.474;2023-10-13T03:25:44;4.97;;;4.55;;
44606;SDS011;30315;46.072;14.474;2023-10-13T03:28:19;6.75;;;4.47;;
44606;SDS011;30315;46.072;14.474;2023-10-13T03:30:50;5.90;;;4.32;;
44606;SDS011;30315;46.072;14.474;2023-10-13T03:33:19;4.47;;;4.13;;
44606;SDS011;30315;46.072;14.474;2023-10-13T03:35:52;4.75;;;4.30;;
44606;SDS011;30315;46.072;14.474;2023-10-13T03:38:31;5.57;;;4.15;;
44606;SDS011;30315;46.072;14.474;2023-10-13T03:41:03;4.88;;;4.40;;
44606;SDS011;30315;46.072;14.474;2023-10-13T03:43:47;11.40;;;4.80;;
44606;SDS011;30315;46.072;14.474;2023-10-13T03:46:34;5.75;;;4.38;;
44606;SDS011;30315;46.072;14.474;2023-10-13T03:51:32;8.93;;;3.95;;
44606;SDS011;30315;46.072;14.474;2023-10-13T03:54:00;4.85;;;4.15;;
44606;SDS011;30315;46.072;14.474;2023-10-13T03:56:35;4.85;;;4.50;;
44606;SDS011;30315;46.072;14.474;2023-10-13T03:59:05;4.63;;;4.22;;
44606;SDS011;30315;46.072;14.474;2023-10-13T04:01:36;6.80;;;4.97;;
44606;SDS011;30315;46.072;14.474;2023-10-13T04:04:15;8.43;;;4.82;;
44606;SDS011;30315;46.072;14.474;2023-10-13T04:06:56;4.57;;;4.18;;
44606;SDS011;30315;46.072;14.474;2023-10-13T04:09:43;4.90;;;3.83;;
44606;SDS011;30315;46.072;14.474;2023-10-13T04:12:15;4.13;;;3.72;;
44606;SDS011;30315;46.072;14.474;2023-10-13T04:15:06;4.50;;;4.10;;
44606;SDS011;30315;46.072;14.474;2023-10-13T04:17:36;4.82;;;4.05;;
44606;SDS011;30315;46.072;14.474;2023-10-13T04:20:13;4.72;;;4.35;;
44606;SDS011;30315;46.072;14.474;2023-10-13T04:22:46;6.60;;;4.93;;
44606;SDS011;30315;46.072;14.474;2023-10-13T04:25:21;4.40;;;4.00;;
44606;SDS011;30315;46.072;14.474;2023-10-13T04:28:08;7.57;;;4.00;;
44606;SDS011;30315;46.072;14.474;2023-10-13T04:33:28;6.65;;;4.80;;
44606;SDS011;30315;46.072;14.474;2023-10-13T04:36:17;4.57;;;4.22;;
44606;SDS011;30315;46.072;14.474;2023-10-13T04:38:56;5.82;;;4.90;;
44606;SDS011;30315;46.072;14.474;2023-10-13T04:41:32;5.30;;;3.88;;
44606;SDS011;30315;46.072;14.474;2023-10-13T04:44:12;6.03;;;4.53;;
44606;SDS011;30315;46.072;14.474;2023-10-13T04:46:52;4.47;;;4.07;;
44606;SDS011;30315;46.072;14.474;2023-10-13T04:49:27;4.50;;;4.10;;
44606;SDS011;30315;46.072;14.474;2023-10-13T04:51:55;4.47;;;4.18;;
44606;SDS011;30315;46.072;14.474;2023-10-13T04:54:28;6.80;;;4.78;;
44606;SDS011;30315;46.072;14.474;2023-10-13T04:57:14;4.72;;;4.40;;
44606;SDS011;30315;46.072;14.474;2023-10-13T05:00:03;6.80;;;4.40;;
44606;SDS011;30315;46.072;14.474;2023-10-13T05:02:40;4.70;;;4.20;;
44606;SDS011;30315;46.072;14.474;2023-10-13T05:05:27;4.38;;;3.97;;
44606;SDS011;30315;46.072;14.474;2023-10-13T05:07:57;5.35;;;4.85;;
44606;SDS011;30315;46.072;14.474;2023-10-13T05:10:42;8.38;;;4.43;;
44606;SDS011;30315;46.072;14.474;2023-10-13T05:13:28;3.88;;;3.33;;
44606;SDS011;30315;46.072;14.474;2023-10-13T05:16:14;5.93;;;4.50;;
44606;SDS011;30315;46.072;14.474;2023-10-13T05:18:59;4.22;;;3.92;;
44606;SDS011;30315;46.072;14.474;2023-10-13T05:21:45;7.88;;;4.82;;
44606;SDS011;30315;46.072;14.474;2023-10-13T05:24:30;8.32;;;4.43;;
44606;SDS011;30315;46.072;14.474;2023-10-13T05:27:16;5.30;;;3.80;;
44606;SDS011;30315;46.072;14.474;2023-10-13T05:30:01;4.18;;;3.85;;
44606;SDS011;30315;46.072;14.474;2023-10-13T05:32:46;6.15;;;4.85;;
44606;SDS011;30315;46.072;14.474;2023-10-13T05:35:32;4.75;;;4.35;;
44606;SDS011;30315;46.072;14.474;2023-10-13T05:38:18;5.10;;;4.13;;
44606;SDS011;30315;46.072;14.474;2023-10-13T05:41:04;4.93;;;4.47;;
44606;SDS011;30315;46.072;14.474;2023-10-13T05:43:51;7.32;;;5.03;;
44606;SDS011;30315;46.072;14.474;2023-10-13T05:46:37;4.85;;;4.30;;
44606;SDS011;30315;46.072;14.474;2023-10-13T05:49:08;6.00;;;4.47;;
44606;SDS011;30315;46.072;14.474;2023-10-13T05:51:53;4.55;;;4.15;;
44606;SDS011;30315;46.072;14.474;2023-10-13T05:54:47;9.45;;;4.35;;
44606;SDS011;30315;46.072;14.474;2023-10-13T05:57:32;6.28;;;4.40;;
44606;SDS011;30315;46.072;14.474;2023-10-13T06:00:18;3.72;;;3.42;;
44606;SDS011;30315;46.072;14.474;2023-10-13T06:03:04;4.50;;;4.20;;
44606;SDS011;30315;46.072;14.474;2023-10-13T06:05:49;5.35;;;4.57;;
44606;SDS011;30315;46.072;14.474;2023-10-13T06:08:35;5.03;;;4.57;;
44606;SDS011;30315;46.072;14.474;2023-10-13T06:11:21;4.80;;;4.25;;
44606;SDS011;30315;46.072;14.474;2023-10-13T06:14:06;8.45;;;4.35;;
44606;SDS011;30315;46.072;14.474;2023-10-13T06:16:54;4.10;;;3.70;;
44606;SDS011;30315;46.072;14.474;2023-10-13T06:19:40;5.32;;;4.88;;
44606;SDS011;30315;46.072;14.474;2023-10-13T06:22:26;6.50;;;4.78;;
44606;SDS011;30315;46.072;14.474;2023-10-13T06:25:12;4.25;;;3.83;;
44606;SDS011;30315;46.072;14.474;2023-10-13T06:27:57;4.72;;;3.95;;
44606;SDS011;30315;46.072;14.474;2023-10-13T06:30:58;7.80;;;5.10;;
44606;SDS011;30315;46.072;14.474;2023-10-13T06:33:27;5.43;;;4.88;;
44606;SDS011;30315;46.072;14.474;2023-10-13T06:36:03;5.18;;;4.72;;
44606;SDS011;30315;46.072;14.474;2023-10-13T06:38:36;7.68;;;4.50;;
44606;SDS011;30315;46.072;14.474;2023-10-13T06:41:04;4.45;;;4.10;;
44606;SDS011;30315;46.072;14.474;2023-10-13T06:43:36;7.00;;;3.85;;
44606;SDS011;30315;46.072;14.474;2023-10-13T06:46:11;7.68;;;4.60;;
44606;SDS011;30315;46.072;14.474;2023-10-13T06:48:50;6.22;;;4.68;;
44606;SDS011;30315;46.072;14.474;2023-10-13T06:51:20;6.57;;;4.55;;
44606;SDS011;30315;46.072;14.474;2023-10-13T06:53:53;3.63;;;3.40;;
44606;SDS011;30315;46.072;14.474;2023-10-13T06:56:23;4.88;;;4.47;;
44606;SDS011;30315;46.072;14.474;2023-10-13T06:58:56;3.95;;;3.65;;
44606;SDS011;30315;46.072;14.474;2023-10-13T07:01:31;4.40;;;4.00;;
44606;SDS011;30315;46.072;14.474;2023-10-13T07:04:09;4.47;;;4.07;;
44606;SDS011;30315;46.072;14.474;2023-10-13T07:06:46;7.35;;;4.43;;
44606;SDS011;30315;46.072;14.474;2023-10-13T07:09:16;6.15;;;3.97;;
44606;SDS011;30315;46.072;14.474;2023-10-13T07:12:03;6.53;;;3.88;;
44606;SDS011;30315;46.072;14.474;2023-10-13T07:14:33;7.47;;;4.68;;
44606;SDS011;30315;46.072;14.474;2023-10-13T07:17:13;5.68;;;4.47;;
44606;SDS011;30315;46.072;14.474;2023-10-13T07:19:53;7.38;;;5.13;;
44606;SDS011;30315;46.072;14.474;2023-10-13T07:22:22;3.80;;;3.50;;
44606;SDS011;30315;46.072;14.474;2023-10-13T07:24:50;5.28;;;3.83;;
44606;SDS011;30315;46.072;14.474;2023-10-13T07:27:20;4.78;;;4.38;;
44606;SDS011;30315;46.072;14.474;2023-10-13T07:29:52;4.45;;;4.05;;
44606;SDS011;30315;46.072;14.474;2023-10-13T07:32:41;4.10;;;3.78;;
44606;SDS011;30315;46.072;14.474;2023-10-13T07:35:18;6.15;;;4.30;;
44606;SDS011;30315;46.072;14.474;2023-10-13T07:37:51;4.20;;;3.80;;
44606;SDS011;30315;46.072;14.474;2023-10-13T07:40:20;4.57;;;4.10;;
44606;SDS011;30315;46.072;14.474;2023-10-13T07:42:51;4.28;;;3.90;;
44606;SDS011;30315;46.072;14.474;2023-10-13T07:45:39;7.70;;;4.53;;
44606;SDS011;30315;46.072;14.474;2023-10-13T07:48:08;5.10;;;4.47;;
44606;SDS011;30315;46.072;14.474;2023-10-13T07:50:46;5.22;;;4.07;;
44606;SDS011;30315;46.072;14.474;2023-10-13T07:55:45;5.88;;;4.03;;
44606;SDS011;30315;46.072;14.474;2023-10-13T07:58:23;4.57;;;3.70;;
44606;SDS011;30315;46.072;14.474;2023-10-13T08:00:53;4.07;;;3.78;;
44606;SDS011;30315;46.072;14.474;2023-10-13T08:03:27;5.53;;;3.15;;
44606;SDS011;30315;46.072;14.474;2023-10-13T08:06:17;6.00;;;3.97;;
44606;SDS011;30315;46.072;14.474;2023-10-13T08:09:08;4.32;;;3.95;;
44606;SDS011;30315;46.072;14.474;2023-10-13T08:12:03;7.47;;;4.15;;
44606;SDS011;30315;46.072;14.474;2023-10-13T08:14:35;3.78;;;3.42;;
44606;SDS011;30315;46.072;14.474;2023-10-13T08:17:09;6.93;;;4.38;;
44606;SDS011;30315;46.072;14.474;2023-10-13T08:20:07;5.78;;;5.22;;
44606;SDS011;30315;46.072;14.474;2023-10-13T08:22:38;7.40;;;6.22;;
44606;SDS011;30315;46.072;14.474;2023-10-13T08:25:16;8.50;;;6.07;;
44606;SDS011;30315;46.072;14.474;2023-10-13T08:28:20;6.20;;;5.60;;
44606;SDS011;30315;46.072;14.474;2023-10-13T08:31:18;13.93;;;5.00;;
44606;SDS011;30315;46.072;14.474;2023-10-13T08:33:53;6.43;;;4.18;;
44606;SDS011;30315;46.072;14.474;2023-10-13T08:36:39;5.43;;;4.55;;
44606;SDS011;30315;46.072;14.474;2023-10-13T08:39:10;4.45;;;4.03;;
44606;SDS011;30315;46.072;14.474;2023-10-13T08:42:00;3.90;;;3.17;;
44606;SDS011;30315;46.072;14.474;2023-10-13T08:44:45;4.75;;;4.28;;
44606;SDS011;30315;46.072;14.474;2023-10-13T08:47:15;4.18;;;3.38;;
44606;SDS011;30315;46.072;14.474;2023-10-13T08:49:48;6.53;;;3.90;;
44606;SDS011;30315;46.072;14.474;2023-10-13T08:52:30;4.60;;;3.28;;
44606;SDS011;30315;46.072;14.474;2023-10-13T08:55:25;4.90;;;3.67;;
44606;SDS011;30315;46.072;14.474;2023-10-13T08:58:28;3.97;;;3.67;;
44606;SDS011;30315;46.072;14.474;2023-10-13T09:04:26;3.35;;;3.15;;
44606;SDS011;30315;46.072;14.474;2023-10-13T09:07:02;5.28;;;3.67;;
44606;SDS011;30315;46.072;14.474;2023-10-13T09:14:55;9.25;;;3.85;;
44606;SDS011;30315;46.072;14.474;2023-10-13T09:17:31;4.72;;;4.28;;
44606;SDS011;30315;46.072;14.474;2023-10-13T09:20:08;4.93;;;4.40;;
44606;SDS011;30315;46.072;14.474;2023-10-13T09:22:49;8.25;;;4.43;;
44606;SDS011;30315;46.072;14.474;2023-10-13T09:25:33;5.90;;;4.28;;
44606;SDS011;30315;46.072;14.474;2023-10-13T09:28:11;4.93;;;4.45;;
44606;SDS011;30315;46.072;14.474;2023-10-13T09:30:44;5.32;;;4.82;;
44606;SDS011;30315;46.072;14.474;2023-10-13T09:33:31;6.88;;;5.50;;
44606;SDS011;30315;46.072;14.474;2023-10-13T09:36:14;8.95;;;5.47;;
44606;SDS011;30315;46.072;14.474;2023-10-13T09:38:43;7.57;;;5.68;;
44606;SDS011;30315;46.072;14.474;2023-10-13T09:41:30;6.35;;;5.22;;
44606;SDS011;30315;46.072;14.474;2023-10-13T09:43:58;6.40;;;5.32;;
44606;SDS011;30315;46.072;14.474;2023-10-13T09:46:26;11.18;;;6.07;;
44606;SDS011;30315;46.072;14.474;2023-10-13T09:48:57;8.63;;;5.35;;
44606;SDS011;30315;46.072;14.474;2023-10-13T09:51:35;5.32;;;4.93;;
44606;SDS011;30315;46.072;14.474;2023-10-13T09:56:50;8.00;;;6.45;;
44606;SDS011;30315;46.072;14.474;2023-10-13T09:59:33;10.18;;;6.88;;
44606;SDS011;30315;46.072;14.474;2023-10-13T10:02:08;7.47;;;6.25;;
44606;SDS011;30315;46.072;14.474;2023-10-13T10:07:27;8.60;;;6.75;;
44606;SDS011;30315;46.072;14.474;2023-10-13T10:09:55;7.45;;;6.00;;
44606;SDS011;30315;46.072;14.474;2023-10-13T10:12:37;11.35;;;5.80;;
44606;SDS011;30315;46.072;14.474;2023-10-13T10:18:20;13.57;;;5.68;;
44606;SDS011;30315;46.072;14.474;2023-10-13T10:20:48;6.38;;;5.53;;
44606;SDS011;30315;46.072;14.474;2023-10-13T10:23:25;11.10;;;5.57;;
44606;SDS011;30315;46.072;14.474;2023-10-13T10:25:56;7.88;;;5.22;;
44606;SDS011;30315;46.072;14.474;2023-10-13T10:28:42;9.63;;;5.95;;
44606;SDS011;30315;46.072;14.474;2023-10-13T10:31:10;9.00;;;5.72;;
44606;SDS011;30315;46.072;14.474;2023-10-13T10:33:43;7.82;;;5.57;;
44606;SDS011;30315;46.072;14.474;2023-10-13T10:36:13;8.63;;;6.20;;
44606;SDS011;30315;46.072;14.474;2023-10-13T10:38:52;9.73;;;6.20;;
44606;SDS011;30315;46.072;14.474;2023-10-13T10:41:33;6.95;;;5.85;;
44606;SDS011;30315;46.072;14.474;2023-10-13T10:44:14;11.20;;;5.65;;
44606;SDS011;30315;46.072;14.474;2023-10-13T10:47:38;6.97;;;5.53;;
44606;SDS011;30315;46.072;14.474;2023-10-13T10:56:44;6.28;;;5.20;;
44606;SDS011;30315;46.072;14.474;2023-10-13T10:59:21;5.40;;;4.80;;
44606;SDS011;30315;46.072;14.474;2023-10-13T11:02:00;8.80;;;5.43;;
44606;SDS011;30315;46.072;14.474;2023-10-13T11:04:50;5.30;;;4.80;;
44606;SDS011;30315;46.072;14.474;2023-10-13T11:07:24;5.53;;;4.03;;
44606;SDS011;30315;46.072;14.474;2023-10-13T11:09:54;7.45;;;3.92;;
44606;SDS011;30315;46.072;14.474;2023-10-13T11:13:16;4.38;;;3.97;;
44606;SDS011;30315;46.072;14.474;2023-10-13T11:15:43;8.73;;;4.68;;
44606;SDS011;30315;46.072;14.474;2023-10-13T11:18:14;4.28;;;3.85;;
44606;SDS011;30315;46.072;14.474;2023-10-13T11:20:55;5.78;;;3.25;;
44606;SDS011;30315;46.072;14.474;2023-10-13T11:23:22;7.00;;;4.28;;
44606;SDS011;30315;46.072;14.474;2023-10-13T11:25:58;5.38;;;4.15;;
44606;SDS011;30315;46.072;14.474;2023-10-13T11:28:26;3.85;;;3.45;;
44606;SDS011;30315;46.072;14.474;2023-10-13T11:30:58;4.70;;;3.45;;
44606;SDS011;30315;46.072;14.474;2023-10-13T11:33:26;3.83;;;3.30;;
44606;SDS011;30315;46.072;14.474;2023-10-13T11:35:55;7.03;;;4.10;;
44606;SDS011;30315;46.072;14.474;2023-10-13T11:40:58;3.92;;;3.30;;
44606;SDS011;30315;46.072;14.474;2023-10-13T11:43:40;3.75;;;3.38;;
44606;SDS011;30315;46.072;14.474;2023-10-13T11:49:06;3.55;;;3.25;;
44606;SDS011;30315;46.072;14.474;2023-10-13T11:51:43;4.80;;;3.88;;
44606;SDS011;30315;46.072;14.474;2023-10-13T11:54:12;4.25;;;3.63;;
44606;SDS011;30315;46.072;14.474;2023-10-13T11:56:49;4.20;;;3.80;;
44606;SDS011;30315;46.072;14.474;2023-10-13T11:59:16;3.15;;;2.95;;
44606;SDS011;30315;46.072;14.474;2023-10-13T12:01:51;6.22;;;3.50;;
44606;SDS011;30315;46.072;14.474;2023-10-13T12:04:37;3.53;;;3.20;;
44606;SDS011;30315;46.072;14.474;2023-10-13T12:07:19;6.38;;;3.97;;
44606;SDS011;30315;46.072;14.474;2023-10-13T12:09:49;4.70;;;3.60;;
44606;SDS011;30315;46.072;14.474;2023-10-13T12:12:24;8.93;;;4.03;;
44606;SDS011;30315;46.072;14.474;2023-10-13T12:14:54;5.78;;;3.88;;
44606;SDS011;30315;46.072;14.474;2023-10-13T12:19:52;4.03;;;3.45;;
44606;SDS011;30315;46.072;14.474;2023-10-13T12:22:20;5.90;;;4.60;;
44606;SDS011;30315;46.072;14.474;2023-10-13T12:25:13;5.35;;;4.28;;
44606;SDS011;30315;46.072;14.474;2023-10-13T12:27:59;4.97;;;3.53;;
44606;SDS011;30315;46.072;14.474;2023-10-13T12:30:45;6.28;;;4.25;;
44606;SDS011;30315;46.072;14.474;2023-10-13T12:33:16;5.68;;;4.65;;
44606;SDS011;30315;46.072;14.474;2023-10-13T12:35:57;5.05;;;4.47;;
44606;SDS011;30315;46.072;14.474;2023-10-13T12:38:40;7.05;;;4.30;;
44606;SDS011;30315;46.072;14.474;2023-10-13T12:44:02;6.60;;;5.70;;
44606;SDS011;30315;46.072;14.474;2023-10-13T12:46:49;5.47;;;4.97;;
44606;SDS011;30315;46.072;14.474;2023-10-13T12:49:36;5.90;;;4.85;;
44606;SDS011;30315;46.072;14.474;2023-10-13T12:52:10;7.40;;;4.68;;
44606;SDS011;30315;46.072;14.474;2023-10-13T12:54:58;6.07;;;4.60;;
44606;SDS011;30315;46.072;14.474;2023-10-13T12:57:25;10.70;;;4.70;;
44606;SDS011;30315;46.072;14.474;2023-10-13T12:59:55;10.20;;;4.45;;
44606;SDS011;30315;46.072;14.474;2023-10-13T13:02:22;13.18;;;5.50;;
44606;SDS011;30315;46.072;14.474;2023-10-13T13:04:52;6.45;;;4.70;;
44606;SDS011;30315;46.072;14.474;2023-10-13T13:07:40;7.00;;;4.60;;
44606;SDS011;30315;46.072;14.474;2023-10-13T13:10:14;6.32;;;4.40;;
44606;SDS011;30315;46.072;14.474;2023-10-13T13:12:41;5.85;;;3.95;;
44606;SDS011;30315;46.072;14.474;2023-10-13T13:15:08;5.72;;;4.90;;
44606;SDS011;30315;46.072;14.474;2023-10-13T13:17:36;6.00;;;4.40;;
44606;SDS011;30315;46.072;14.474;2023-10-13T13:22:52;7.07;;;4.60;;
44606;SDS011;30315;46.072;14.474;2023-10-13T13:25:21;5.57;;;4.30;;
44606;SDS011;30315;46.072;14.474;2023-10-13T13:27:57;6.05;;;4.25;;
44606;SDS011;30315;46.072;14.474;2023-10-13T13:30:31;10.57;;;5.22;;
44606;SDS011;30315;46.072;14.474;2023-10-13T13:33:01;7.20;;;4.32;;
44606;SDS011;30315;46.072;14.474;2023-10-13T13:35:38;5.00;;;4.38;;
44606;SDS011;30315;46.072;14.474;2023-10-13T13:38:09;5.90;;;4.25;;
44606;SDS011;30315;46.072;14.474;2023-10-13T13:40:37;8.98;;;5.20;;
44606;SDS011;30315;46.072;14.474;2023-10-13T13:43:05;6.05;;;4.13;;
44606;SDS011;30315;46.072;14.474;2023-10-13T13:45:33;9.97;;;4.20;;
44606;SDS011;30315;46.072;14.474;2023-10-13T13:48:01;4.63;;;4.22;;
44606;SDS011;30315;46.072;14.474;2023-10-13T13:50:37;6.40;;;5.10;;
44606;SDS011;30315;46.072;14.474;2023-10-13T13:53:07;7.78;;;5.07;;
44606;SDS011;30315;46.072;14.474;2023-10-13T13:55:38;7.35;;;5.13;;
44606;SDS011;30315;46.072;14.474;2023-10-13T13:58:06;6.33;;;4.83;;
44606;SDS011;30315;46.072;14.474;2023-10-13T14:00:36;6.55;;;4.82;;
44606;SDS011;30315;46.072;14.474;2023-10-13T14:05:32;7.47;;;4.53;;
44606;SDS011;30315;46.072;14.474;2023-10-13T14:07:59;5.47;;;4.70;;
44606;SDS011;30315;46.072;14.474;2023-10-13T14:10:26;4.80;;;4.32;;
44606;SDS011;30315;46.072;14.474;2023-10-13T14:13:10;7.75;;;5.00;;
44606;SDS011;30315;46.072;14.474;2023-10-13T14:15:43;7.47;;;6.30;;
44606;SDS011;30315;46.072;14.474;2023-10-13T14:18:18;10.60;;;5.00;;
44606;SDS011;30315;46.072;14.474;2023-10-13T14:20:45;6.80;;;5.47;;
44606;SDS011;30315;46.072;14.474;2023-10-13T14:23:12;5.03;;;4.50;;
44606;SDS011;30315;46.072;14.474;2023-10-13T14:25:39;8.05;;;4.93;;
44606;SDS011;30315;46.072;14.474;2023-10-13T14:28:11;8.30;;;5.57;;
44606;SDS011;30315;46.072;14.474;2023-10-13T14:30:43;7.35;;;4.85;;
44606;SDS011;30315;46.072;14.474;2023-10-13T14:33:10;9.85;;;5.93;;
44606;SDS011;30315;46.072;14.474;2023-10-13T14:35:37;7.47;;;6.18;;
44606;SDS011;30315;46.072;14.474;2023-10-13T14:38:04;6.07;;;5.40;;
44606;SDS011;30315;46.072;14.474;2023-10-13T14:40:31;9.02;;;5.45;;
44606;SDS011;30315;46.072;14.474;2023-10-13T14:42:58;6.55;;;5.20;;
44606;SDS011;30315;46.072;14.474;2023-10-13T14:45:25;8.73;;;5.88;;
44606;SDS011;30315;46.072;14.474;2023-10-13T14:47:52;6.90;;;5.85;;
44606;SDS011;30315;46.072;14.474;2023-10-13T14:50:28;6.82;;;4.80;;
44606;SDS011;30315;46.072;14.474;2023-10-13T14:52:58;8.63;;;5.72;;
44606;SDS011;30315;46.072;14.474;2023-10-13T14:55:25;6.00;;;5.03;;
44606;SDS011;30315;46.072;14.474;2023-10-13T14:58:08;9.82;;;5.57;;
44606;SDS011;30315;46.072;14.474;2023-10-13T15:00:44;9.18;;;5.32;;
44606;SDS011;30315;46.072;14.474;2023-10-13T15:03:16;11.93;;;5.97;;
44606;SDS011;30315;46.072;14.474;2023-10-13T15:05:45;6.10;;;5.28;;
44606;SDS011;30315;46.072;14.474;2023-10-13T15:08:12;7.78;;;6.20;;
44606;SDS011;30315;46.072;14.474;2023-10-13T15:10:39;8.88;;;5.97;;
44606;SDS011;30315;46.072;14.474;2023-10-13T15:13:06;6.68;;;5.18;;
44606;SDS011;30315;46.072;14.474;2023-10-13T15:15:32;6.53;;;5.60;;
44606;SDS011;30315;46.072;14.474;2023-10-13T15:20:29;8.63;;;5.53;;
44606;SDS011;30315;46.072;14.474;2023-10-13T15:23:00;7.53;;;5.53;;
44606;SDS011;30315;46.072;14.474;2023-10-13T15:25:28;8.75;;;4.57;;
44606;SDS011;30315;46.072;14.474;2023-10-13T15:27:59;8.43;;;4.70;;
44606;SDS011;30315;46.072;14.474;2023-10-13T15:30:38;8.75;;;6.07;;
44606;SDS011;30315;46.072;14.474;2023-10-13T15:41:28;6.88;;;5.28;;
44606;SDS011;30315;46.072;14.474;2023-10-13T15:43:58;6.55;;;5.05;;
44606;SDS011;30315;46.072;14.474;2023-10-13T15:47:29;10.65;;;5.60;;
44606;SDS011;30315;46.072;14.474;2023-10-13T15:50:03;7.68;;;5.30;;
44606;SDS011;30315;46.072;14.474;2023-10-13T15:52:33;6.47;;;5.55;;
44606;SDS011;30315;46.072;14.474;2023-10-13T15:55:04;9.10;;;6.22;;
44606;SDS011;30315;46.072;14.474;2023-10-13T15:57:33;11.45;;;6.10;;
44606;SDS011;30315;46.072;14.474;2023-10-13T16:00:02;7.15;;;5.40;;
44606;SDS011;30315;46.072;14.474;2023-10-13T16:02:50;8.80;;;5.93;;
44606;SDS011;30315;46.072;14.474;2023-10-13T16:05:18;6.60;;;5.57;;
44606;SDS011;30315;46.072;14.474;2023-10-13T16:07:46;9.65;;;5.50;;
44606;SDS011;30315;46.072;14.474;2023-10-13T16:10:13;14.68;;;6.75;;
44606;SDS011;30315;46.072;14.474;2023-10-13T16:12:40;9.40;;;6.47;;
44606;SDS011;30315;46.072;14.474;2023-10-13T16:15:07;9.77;;;6.00;;
44606;SDS011;30315;46.072;14.474;2023-10-13T16:17:40;11.02;;;6.55;;
44606;SDS011;30315;46.072;14.474;2023-10-13T16:20:07;13.07;;;6.70;;
44606;SDS011;30315;46.072;14.474;2023-10-13T16:22:43;9.80;;;7.22;;
44606;SDS011;30315;46.072;14.474;2023-10-13T16:25:12;11.43;;;6.45;;